sensor_id;sensor_type;location;lat;lon;timestamp;pressure;altitude;pressure_sealevel;temperature;humidity
12073;BME280;6098;49.004;8.372;2022-11-04T00:01:10;99411.64;;;12.02;95.01
12073;BME280;6098;49.004;8.372;2022-11-04T00:16:02;99432.33;;;12.04;94.12
12073;BME280;6098;49.004;8.372;2022-11-04T00:31:18;99481.95;;;12.03;93.08
12073;BME280;6098;49.004;8.372;2022-11-04T00:46:34;99492.12;;;12.03;90.50
12073;BME280;6098;49.004;8.372;2022-11-04T01:01:25;99496.85;;;11.98;89.31
12073;BME280;6098;49.004;8.372;2022-11-04T01:16:16;99500.50;;;11.96;88.88
12073;BME280;6098;49.004;8.372;2022-11-04T01:31:07;99480.64;;;11.95;89.42
12073;BME280;6098;49.004;8.372;2022-11-04T01:45:58;99497.12;;;11.86;90.17
12073;BME280;6098;49.004;8.372;2022-11-04T02:00:49;99495.58;;;11.82;90.00
12073;BME280;6098;49.004;8.372;2022-11-04T02:46:05;99510.66;;;11.50;88.47
12073;BME280;6098;49.004;8.372;2022-11-04T03:00:55;99510.50;;;11.45;88.98
12073;BME280;6098;49.004;8.372;2022-11-04T03:15:50;99514.59;;;11.35;89.65
12073;BME280;6098;49.004;8.372;2022-11-04T03:30:45;99507.25;;;11.32;88.61
12073;BME280;6098;49.004;8.372;2022-11-04T03:45:36;99522.84;;;11.22;88.98
12073;BME280;6098;49.004;8.372;2022-11-04T04:00:28;99516.75;;;11.12;90.08
12073;BME280;6098;49.004;8.372;2022-11-04T04:15:19;99476.92;;;11.05;90.13
12073;BME280;6098;49.004;8.372;2022-11-04T04:30:11;99475.37;;;11.01;89.71
12073;BME280;6098;49.004;8.372;2022-11-04T04:45:03;99485.70;;;10.99;90.68
12073;BME280;6098;49.004;8.372;2022-11-04T04:59:58;99469.69;;;10.92;91.00
12073;BME280;6098;49.004;8.372;2022-11-04T05:14:50;99461.69;;;10.85;90.65
12073;BME280;6098;49.004;8.372;2022-11-04T05:29:41;99431.05;;;10.88;90.47
12073;BME280;6098;49.004;8.372;2022-11-04T05:44:33;99426.68;;;10.87;90.75
12073;BME280;6098;49.004;8.372;2022-11-04T05:59:24;99443.16;;;10.85;91.60
12073;BME280;6098;49.004;8.372;2022-11-04T06:14:15;99457.95;;;10.81;91.38
12073;BME280;6098;49.004;8.372;2022-11-04T06:29:07;99450.20;;;10.77;91.50
12073;BME280;6098;49.004;8.372;2022-11-04T06:43:59;99450.39;;;10.74;90.38
12073;BME280;6098;49.004;8.372;2022-11-04T06:58:51;99480.11;;;10.80;90.61
12073;BME280;6098;49.004;8.372;2022-11-04T07:13:41;99490.70;;;10.88;90.44
12073;BME280;6098;49.004;8.372;2022-11-04T07:28:34;99493.05;;;11.01;89.51
12073;BME280;6098;49.004;8.372;2022-11-04T07:43:27;99489.25;;;11.22;88.33
12073;BME280;6098;49.004;8.372;2022-11-04T07:58:19;99469.58;;;11.34;87.01
12073;BME280;6098;49.004;8.372;2022-11-04T08:13:10;99447.80;;;11.51;83.69
12073;BME280;6098;49.004;8.372;2022-11-04T08:28:03;99449.75;;;11.71;82.30
12073;BME280;6098;49.004;8.372;2022-11-04T08:42:55;99439.24;;;11.91;79.50
12073;BME280;6098;49.004;8.372;2022-11-04T08:57:48;99455.36;;;12.03;79.42
12073;BME280;6098;49.004;8.372;2022-11-04T09:12:40;99459.67;;;12.27;79.49
12073;BME280;6098;49.004;8.372;2022-11-04T09:27:33;99465.56;;;12.54;78.47
12073;BME280;6098;49.004;8.372;2022-11-04T09:42:36;99485.81;;;12.84;76.27
12073;BME280;6098;49.004;8.372;2022-11-04T09:57:31;99489.61;;;13.02;73.99
12073;BME280;6098;49.004;8.372;2022-11-04T10:12:41;99500.28;;;13.01;74.82
12073;BME280;6098;49.004;8.372;2022-11-04T10:27:36;99493.28;;;13.07;73.93
12073;BME280;6098;49.004;8.372;2022-11-04T10:42:27;99480.20;;;13.24;76.15
12073;BME280;6098;49.004;8.372;2022-11-04T10:57:25;99484.07;;;13.33;72.87
12073;BME280;6098;49.004;8.372;2022-11-04T11:12:20;99490.66;;;13.06;77.26
12073;BME280;6098;49.004;8.372;2022-11-04T11:27:14;99490.48;;;13.09;81.10
12073;BME280;6098;49.004;8.372;2022-11-04T11:42:10;99464.93;;;13.27;79.62
12073;BME280;6098;49.004;8.372;2022-11-04T11:57:03;99440.35;;;13.50;77.08
12073;BME280;6098;49.004;8.372;2022-11-04T12:27:31;99440.97;;;14.00;72.75
12073;BME280;6098;49.004;8.372;2022-11-04T12:58:13;99434.67;;;14.40;70.49
12073;BME280;6098;49.004;8.372;2022-11-04T13:13:06;99457.91;;;14.38;71.01
12073;BME280;6098;49.004;8.372;2022-11-04T13:27:59;99472.21;;;14.81;62.02
12073;BME280;6098;49.004;8.372;2022-11-04T13:43:17;99491.28;;;14.63;65.72
12073;BME280;6098;49.004;8.372;2022-11-04T13:58:33;99502.47;;;14.68;65.13
12073;BME280;6098;49.004;8.372;2022-11-04T14:58:24;99560.59;;;13.71;69.93
12073;BME280;6098;49.004;8.372;2022-11-04T15:13:19;99571.48;;;13.47;72.30
12073;BME280;6098;49.004;8.372;2022-11-04T15:43:13;99598.20;;;13.24;74.14
12073;BME280;6098;49.004;8.372;2022-11-04T15:58:04;99624.69;;;13.11;75.11
12073;BME280;6098;49.004;8.372;2022-11-04T16:13:00;99638.45;;;13.04;76.22
12073;BME280;6098;49.004;8.372;2022-11-04T16:27:52;99651.92;;;13.01;77.83
12073;BME280;6098;49.004;8.372;2022-11-04T16:42:45;99661.22;;;12.94;78.78
12073;BME280;6098;49.004;8.372;2022-11-04T16:57:36;99687.28;;;12.88;79.37
12073;BME280;6098;49.004;8.372;2022-11-04T17:12:27;99707.02;;;12.84;82.37
12073;BME280;6098;49.004;8.372;2022-11-04T17:27:18;99738.52;;;12.75;83.95
12073;BME280;6098;49.004;8.372;2022-11-04T17:42:10;99766.97;;;12.59;85.50
12073;BME280;6098;49.004;8.372;2022-11-04T17:57:25;99776.55;;;12.47;86.25
12073;BME280;6098;49.004;8.372;2022-11-04T18:12:17;99801.54;;;12.36;85.54
12073;BME280;6098;49.004;8.372;2022-11-04T18:27:33;99813.56;;;12.34;84.67
12073;BME280;6098;49.004;8.372;2022-11-04T18:42:24;99818.41;;;12.35;85.07
12073;BME280;6098;49.004;8.372;2022-11-04T18:57:16;99851.29;;;12.33;84.30
12073;BME280;6098;49.004;8.372;2022-11-04T19:12:08;99856.81;;;12.29;85.95
12073;BME280;6098;49.004;8.372;2022-11-04T19:27:24;99868.72;;;12.22;87.05
12073;BME280;6098;49.004;8.372;2022-11-04T19:42:15;99901.23;;;12.10;87.49
12073;BME280;6098;49.004;8.372;2022-11-04T19:57:31;99925.98;;;12.03;86.79
12073;BME280;6098;49.004;8.372;2022-11-04T20:12:22;99954.86;;;11.92;87.41
12073;BME280;6098;49.004;8.372;2022-11-04T20:27:38;99972.73;;;11.80;89.50
12073;BME280;6098;49.004;8.372;2022-11-04T20:42:30;99993.25;;;11.78;90.37
12073;BME280;6098;49.004;8.372;2022-11-04T20:57:21;100010.45;;;11.60;91.48
12073;BME280;6098;49.004;8.372;2022-11-04T21:12:13;100030.73;;;11.52;90.54
12073;BME280;6098;49.004;8.372;2022-11-04T21:27:04;100045.91;;;11.40;89.37
12073;BME280;6098;49.004;8.372;2022-11-04T21:41:55;100064.36;;;11.34;89.17
12073;BME280;6098;49.004;8.372;2022-11-04T21:56:48;100073.02;;;11.29;89.44
12073;BME280;6098;49.004;8.372;2022-11-04T22:11:39;100080.05;;;11.29;89.30
12073;BME280;6098;49.004;8.372;2022-11-04T22:26:30;100091.34;;;11.24;89.16
12073;BME280;6098;49.004;8.372;2022-11-04T22:41:22;100108.75;;;11.21;89.31
12073;BME280;6098;49.004;8.372;2022-11-04T22:56:12;100114.09;;;11.20;89.87
12073;BME280;6098;49.004;8.372;2022-11-04T23:11:07;100124.33;;;11.08;89.94
12073;BME280;6098;49.004;8.372;2022-11-04T23:26:17;100131.86;;;11.08;90.67
12073;BME280;6098;49.004;8.372;2022-11-04T23:41:09;100141.80;;;11.04;92.06
12073;BME280;6098;49.004;8.372;2022-11-04T23:56:26;100157.78;;;11.02;94.15
